createdAt,value
2023-05-17T00:01:12.023Z,9.80
2023-05-17T00:03:39.381Z,9.80
2023-05-17T00:06:06.390Z,9.80
2023-05-17T00:08:33.352Z,9.80
2023-05-17T00:11:00.371Z,9.80
2023-05-17T00:13:27.502Z,9.70
2023-05-17T00:15:54.505Z,9.70
2023-05-17T00:18:21.560Z,9.70
2023-05-17T00:20:48.704Z,9.70
2023-05-17T00:23:15.727Z,9.70
2023-05-17T00:25:43.119Z,9.70
2023-05-17T00:28:10.104Z,9.60
2023-05-17T00:30:37.132Z,9.60
2023-05-17T00:33:04.504Z,9.70
2023-05-17T00:35:31.517Z,9.60
2023-05-17T00:37:58.624Z,9.60
2023-05-17T00:40:25.890Z,9.60
2023-05-17T00:42:52.924Z,9.60
2023-05-17T00:45:22.505Z,9.60
2023-05-17T00:47:49.673Z,9.50
2023-05-17T00:50:16.877Z,9.50
2023-05-17T00:52:45.119Z,9.50
2023-05-17T00:55:12.821Z,9.50
2023-05-17T00:57:39.940Z,9.50
2023-05-17T01:00:07.500Z,9.50
2023-05-17T01:02:34.509Z,9.50
2023-05-17T01:05:02.023Z,9.50
2023-05-17T01:07:29.035Z,9.60
2023-05-17T01:09:56.097Z,9.60
2023-05-17T01:13:06.018Z,9.60
2023-05-17T01:15:34.981Z,9.70
2023-05-17T01:18:21.005Z,9.80
2023-05-17T01:20:49.528Z,9.80
2023-05-17T01:23:40.527Z,9.80
2023-05-17T01:26:33.608Z,9.80
2023-05-17T01:29:02.562Z,9.80
2023-05-17T01:31:31.549Z,9.90
2023-05-17T01:33:59.007Z,9.90
2023-05-17T01:36:28.268Z,9.90
2023-05-17T01:38:55.270Z,10.00
2023-05-17T01:41:47.730Z,10.00
2023-05-17T01:44:43.414Z,10.00
2023-05-17T01:47:17.036Z,10.10
2023-05-17T01:49:49.478Z,10.10
2023-05-17T01:52:26.208Z,10.10
2023-05-17T01:55:09.090Z,10.20
2023-05-17T01:57:37.972Z,10.20
2023-05-17T02:00:09.413Z,10.30
2023-05-17T02:02:42.384Z,10.30
2023-05-17T02:05:09.656Z,10.30
2023-05-17T02:07:40.181Z,10.30
2023-05-17T02:10:07.769Z,10.30
2023-05-17T02:12:36.440Z,10.40
2023-05-17T02:15:04.081Z,10.40
2023-05-17T02:17:31.274Z,10.40
2023-05-17T02:19:58.346Z,10.40
2023-05-17T02:22:25.497Z,10.40
2023-05-17T02:24:52.522Z,10.30
2023-05-17T02:27:19.517Z,10.30
2023-05-17T02:29:46.451Z,10.30
2023-05-17T02:32:13.475Z,10.20
2023-05-17T02:34:40.533Z,10.20
2023-05-17T02:37:07.406Z,10.10
2023-05-17T02:39:34.434Z,10.10
2023-05-17T02:42:01.413Z,10.00
2023-05-17T02:44:28.411Z,10.00
2023-05-17T02:46:55.429Z,10.00
2023-05-17T02:49:22.455Z,10.00
2023-05-17T02:51:49.848Z,10.00
2023-05-17T02:54:17.101Z,10.00
2023-05-17T02:56:45.361Z,10.00
2023-05-17T02:59:12.377Z,10.00
2023-05-17T03:01:42.200Z,10.00
2023-05-17T03:04:09.443Z,10.00
2023-05-17T03:06:38.054Z,10.00
2023-05-17T03:09:05.041Z,10.00
2023-05-17T03:11:33.196Z,10.00
2023-05-17T03:14:01.511Z,10.00
2023-05-17T03:16:30.751Z,10.00
2023-05-17T03:18:58.988Z,10.00
2023-05-17T03:21:26.323Z,10.00
2023-05-17T03:23:53.412Z,10.10
2023-05-17T03:26:20.468Z,10.10
2023-05-17T03:28:51.549Z,10.10
2023-05-17T03:31:19.521Z,10.10
2023-05-17T03:33:47.250Z,10.00
2023-05-17T03:36:14.625Z,9.90
2023-05-17T03:38:41.623Z,9.90
2023-05-17T03:41:08.801Z,9.90
2023-05-17T03:43:35.796Z,9.90
2023-05-17T03:46:02.805Z,9.90
2023-05-17T03:48:30.455Z,10.00
2023-05-17T03:50:58.258Z,10.00
2023-05-17T03:53:25.217Z,10.10
2023-05-17T03:55:52.515Z,10.10
2023-05-17T03:58:19.518Z,10.10
2023-05-17T04:00:46.756Z,10.10
2023-05-17T04:03:19.258Z,10.10
2023-05-17T04:05:47.223Z,10.10
2023-05-17T04:08:14.454Z,10.00
2023-05-17T04:10:42.388Z,10.00
2023-05-17T04:13:09.783Z,10.00
2023-05-17T04:15:38.027Z,9.90
2023-05-17T04:18:06.410Z,9.90
2023-05-17T04:20:33.422Z,9.80
2023-05-17T04:23:00.375Z,9.80
2023-05-17T04:25:30.448Z,9.80
2023-05-17T04:27:57.876Z,9.80
2023-05-17T04:30:25.004Z,9.80
2023-05-17T04:32:52.108Z,9.80
2023-05-17T04:35:19.639Z,9.80
2023-05-17T04:37:49.856Z,9.80
2023-05-17T04:40:21.808Z,9.80
2023-05-17T04:42:49.624Z,9.80
2023-05-17T04:45:17.821Z,9.80
2023-05-17T04:47:45.162Z,9.80
2023-05-17T04:50:12.735Z,9.80
2023-05-17T04:52:40.087Z,9.80
2023-05-17T04:55:08.339Z,9.80
2023-05-17T04:57:36.117Z,9.80
2023-05-17T05:00:12.558Z,9.80
2023-05-17T05:02:42.415Z,9.90
2023-05-17T05:05:11.992Z,9.90
2023-05-17T05:07:40.248Z,9.90
2023-05-17T05:10:09.007Z,9.90
2023-05-17T05:12:36.625Z,9.90
2023-05-17T05:15:03.706Z,10.00
2023-05-17T05:17:31.607Z,10.00
2023-05-17T05:19:59.734Z,10.00
2023-05-17T05:22:27.225Z,10.10
2023-05-17T05:24:54.335Z,10.10
2023-05-17T05:27:21.508Z,10.20
2023-05-17T05:29:48.489Z,10.20
2023-05-17T05:32:17.320Z,10.20
2023-05-17T05:34:46.289Z,10.30
2023-05-17T05:37:15.724Z,10.30
2023-05-17T05:39:43.630Z,10.40
2023-05-17T05:42:10.860Z,10.40
2023-05-17T05:44:38.162Z,10.50
2023-05-17T05:47:05.470Z,10.60
2023-05-17T05:49:32.488Z,10.60
2023-05-17T05:51:59.498Z,10.70
2023-05-17T05:54:28.490Z,10.70
2023-05-17T05:56:55.810Z,10.80
2023-05-17T05:59:22.829Z,10.80
2023-05-17T06:01:49.912Z,10.90
2023-05-17T06:04:16.876Z,10.90
2023-05-17T06:06:44.078Z,11.00
2023-05-17T06:09:12.391Z,11.00
2023-05-17T06:11:39.885Z,11.00
2023-05-17T06:14:07.412Z,11.10
2023-05-17T06:16:35.318Z,11.10
2023-05-17T06:19:04.993Z,11.20
2023-05-17T06:21:32.052Z,11.20
2023-05-17T06:23:59.050Z,11.30
2023-05-17T06:26:26.040Z,11.30
2023-05-17T06:28:53.230Z,11.30
2023-05-17T06:31:21.231Z,11.40
2023-05-17T06:33:48.305Z,11.40
2023-05-17T06:36:15.391Z,11.50
2023-05-17T06:38:42.295Z,11.60
2023-05-17T06:41:09.255Z,11.80
2023-05-17T06:43:37.760Z,11.90
2023-05-17T06:46:04.897Z,12.10
2023-05-17T06:48:32.238Z,12.20
2023-05-17T06:50:59.207Z,12.40
2023-05-17T06:53:27.304Z,12.50
2023-05-17T06:55:54.632Z,12.50
2023-05-17T06:58:22.146Z,12.60
2023-05-17T07:00:49.227Z,12.70
2023-05-17T07:03:16.247Z,12.70
2023-05-17T07:05:43.201Z,12.70
2023-05-17T07:08:10.224Z,12.70
2023-05-17T07:10:37.125Z,12.80
2023-05-17T07:13:04.191Z,12.80
2023-05-17T07:15:31.565Z,12.70
2023-05-17T07:17:59.538Z,12.80
2023-05-17T07:20:27.107Z,12.90
2023-05-17T07:22:54.053Z,12.90
2023-05-17T07:25:21.522Z,13.00
2023-05-17T07:27:48.541Z,13.10
2023-05-17T07:30:15.789Z,13.10
2023-05-17T07:32:42.936Z,13.10
2023-05-17T07:35:10.559Z,13.10
2023-05-17T07:37:37.683Z,13.20
2023-05-17T07:40:05.727Z,13.30
2023-05-17T07:42:33.828Z,13.50
2023-05-17T07:45:00.879Z,13.60
2023-05-17T07:47:28.045Z,13.70
2023-05-17T07:49:55.122Z,13.90
2023-05-17T07:52:22.211Z,14.10
2023-05-17T07:54:49.160Z,14.30
2023-05-17T07:57:16.252Z,14.40
2023-05-17T07:59:43.179Z,14.50
2023-05-17T08:02:10.293Z,14.50
2023-05-17T08:04:37.489Z,14.60
2023-05-17T08:07:05.505Z,14.60
2023-05-17T08:09:32.593Z,14.70
2023-05-17T08:11:59.603Z,14.80
2023-05-17T08:14:27.113Z,15.00
2023-05-17T08:16:54.228Z,15.00
2023-05-17T08:19:21.278Z,15.10
2023-05-17T08:21:49.395Z,15.10
2023-05-17T08:24:17.672Z,15.20
2023-05-17T08:26:44.792Z,15.30
2023-05-17T08:29:11.764Z,15.40
2023-05-17T08:31:38.661Z,15.60
2023-05-17T08:34:05.818Z,15.90
2023-05-17T08:36:32.987Z,16.50
2023-05-17T08:38:59.875Z,17.20
2023-05-17T08:41:27.443Z,17.80
2023-05-17T08:43:55.301Z,18.40
2023-05-17T08:46:23.929Z,19.00
2023-05-17T08:48:52.253Z,19.30
2023-05-17T08:51:22.967Z,19.50
2023-05-17T08:53:50.798Z,19.70
2023-05-17T08:56:21.513Z,20.00
2023-05-17T08:58:56.620Z,19.90
2023-05-17T09:01:26.389Z,19.80
2023-05-17T09:03:54.625Z,20.00
2023-05-17T09:06:22.998Z,20.40
2023-05-17T09:08:54.939Z,20.80
2023-05-17T09:11:30.122Z,21.00
2023-05-17T09:14:01.764Z,21.20
2023-05-17T09:16:33.600Z,21.60
2023-05-17T09:19:01.484Z,22.00
2023-05-17T09:21:31.526Z,22.30
2023-05-17T09:24:06.258Z,22.60
2023-05-17T09:26:43.041Z,23.10
2023-05-17T09:29:15.145Z,23.40
2023-05-17T09:31:43.032Z,23.60
2023-05-17T09:34:10.648Z,23.80
2023-05-17T09:36:39.351Z,24.00
2023-05-17T09:39:10.708Z,23.80
2023-05-17T09:41:46.873Z,23.90
2023-05-17T09:44:15.197Z,24.10
2023-05-17T09:46:50.154Z,24.30
2023-05-17T09:49:18.165Z,24.50
2023-05-17T09:51:47.494Z,24.70
2023-05-17T09:54:14.821Z,24.90
2023-05-17T09:56:42.049Z,25.10
2023-05-17T09:59:16.546Z,25.20
2023-05-17T10:01:45.795Z,25.30
2023-05-17T10:04:13.726Z,25.50
2023-05-17T10:09:14.238Z,26.50
2023-05-17T10:11:45.942Z,26.70
2023-05-17T10:14:28.616Z,26.70
2023-05-17T10:16:56.349Z,26.80
2023-05-17T10:19:24.800Z,27.10
2023-05-17T10:21:53.214Z,27.50
2023-05-17T10:24:24.074Z,27.70
2023-05-17T10:26:51.234Z,27.80
2023-05-17T10:29:21.022Z,27.90
2023-05-17T10:31:53.200Z,28.10
2023-05-17T10:34:20.819Z,28.20
2023-05-17T10:36:50.040Z,28.10
2023-05-17T10:39:17.910Z,27.90
2023-05-17T10:41:47.980Z,27.90
2023-05-17T10:44:16.729Z,28.10
2023-05-17T10:46:56.031Z,28.20
2023-05-17T10:49:27.452Z,28.00
2023-05-17T10:51:54.716Z,27.90
2023-05-17T10:54:33.491Z,27.80
2023-05-17T10:57:08.459Z,27.70
2023-05-17T10:59:35.937Z,27.80
2023-05-17T11:02:10.351Z,27.80
2023-05-17T11:04:45.520Z,27.90
2023-05-17T11:07:29.269Z,27.90
2023-05-17T11:10:08.488Z,27.90
2023-05-17T11:12:46.828Z,27.60
2023-05-17T11:15:17.689Z,27.50
2023-05-17T11:17:44.641Z,27.70
2023-05-17T11:20:26.764Z,28.00
2023-05-17T11:23:04.280Z,28.20
2023-05-17T11:25:36.271Z,28.30
2023-05-17T11:28:20.761Z,28.20
2023-05-17T11:30:52.141Z,28.40
2023-05-17T11:33:33.142Z,28.70
2023-05-17T11:36:06.962Z,29.00
2023-05-17T11:38:34.644Z,29.10
2023-05-17T11:43:52.133Z,29.20
2023-05-17T11:46:21.169Z,29.10
2023-05-17T11:48:50.474Z,29.20
2023-05-17T11:51:18.069Z,29.10
2023-05-17T11:53:47.171Z,28.60
2023-05-17T11:56:15.093Z,28.30
2023-05-17T11:58:43.369Z,28.30
2023-05-17T12:01:10.672Z,28.40
2023-05-17T12:03:37.638Z,28.60
2023-05-17T12:06:16.550Z,28.70
2023-05-17T12:08:45.437Z,28.70
2023-05-17T12:11:14.859Z,28.70
2023-05-17T12:13:42.692Z,29.00
2023-05-17T12:16:18.278Z,29.30
2023-05-17T12:18:49.565Z,28.80
2023-05-17T12:21:18.299Z,28.50
2023-05-17T12:23:48.832Z,28.30
2023-05-17T12:26:21.855Z,28.30
2023-05-17T12:28:59.803Z,28.50
2023-05-17T12:31:36.864Z,28.70
2023-05-17T12:34:06.924Z,28.70
2023-05-17T12:36:34.280Z,28.80
2023-05-17T12:39:02.078Z,29.00
2023-05-17T12:41:30.701Z,29.20
2023-05-17T12:44:13.804Z,29.30
2023-05-17T12:46:42.801Z,29.70
2023-05-17T12:49:11.281Z,29.90
2023-05-17T12:51:45.652Z,29.70
2023-05-17T12:54:16.001Z,29.50
2023-05-17T12:56:45.043Z,29.30
2023-05-17T12:59:14.820Z,29.20
2023-05-17T13:01:58.040Z,29.00
2023-05-17T13:04:36.822Z,28.80
2023-05-17T13:07:05.041Z,28.70
2023-05-17T13:09:34.191Z,28.60
2023-05-17T13:12:06.815Z,28.60
2023-05-17T13:14:47.476Z,28.40
2023-05-17T13:17:20.950Z,28.20
2023-05-17T13:19:48.044Z,28.00
2023-05-17T13:22:18.363Z,27.80
2023-05-17T13:24:45.483Z,27.90
2023-05-17T13:27:12.775Z,28.40
2023-05-17T13:29:42.189Z,28.60
2023-05-17T13:32:11.970Z,28.60
2023-05-17T13:34:39.390Z,28.60
2023-05-17T13:37:09.392Z,28.40
2023-05-17T13:39:37.354Z,28.30
2023-05-17T13:42:04.560Z,28.30
2023-05-17T13:44:31.412Z,28.40
2023-05-17T13:46:58.276Z,28.30
2023-05-17T13:49:25.148Z,28.10
2023-05-17T13:51:51.954Z,28.00
2023-05-17T13:54:20.609Z,28.00
2023-05-17T13:56:47.493Z,27.80
2023-05-17T13:59:14.373Z,27.80
2023-05-17T14:01:41.967Z,27.80
2023-05-17T14:04:08.837Z,27.70
2023-05-17T14:06:35.974Z,27.70
2023-05-17T14:09:02.914Z,27.50
2023-05-17T14:11:30.080Z,27.50
2023-05-17T14:13:57.018Z,27.40
2023-05-17T14:16:23.799Z,27.50
2023-05-17T14:18:50.828Z,27.40
2023-05-17T14:21:18.119Z,27.10
2023-05-17T14:23:44.904Z,27.00
2023-05-17T14:26:11.921Z,27.00
2023-05-17T14:28:39.121Z,26.80
2023-05-17T14:31:07.040Z,26.60
2023-05-17T14:33:34.301Z,26.50
2023-05-17T14:36:01.346Z,26.40
2023-05-17T14:38:28.154Z,26.20
2023-05-17T14:40:55.272Z,26.10
2023-05-17T14:43:23.239Z,26.10
2023-05-17T14:45:50.092Z,26.00
2023-05-17T14:48:17.066Z,25.80
2023-05-17T14:50:43.981Z,25.70
2023-05-17T14:53:11.002Z,25.50
2023-05-17T14:55:38.027Z,25.20
2023-05-17T14:58:04.985Z,25.00
2023-05-17T15:00:31.863Z,24.80
2023-05-17T15:02:59.159Z,24.80
2023-05-17T15:05:26.188Z,24.70
2023-05-17T15:07:53.049Z,24.70
2023-05-17T15:10:20.178Z,24.80
2023-05-17T15:12:47.397Z,25.00
2023-05-17T15:15:14.446Z,25.00
2023-05-17T15:17:41.605Z,24.90
2023-05-17T15:20:09.215Z,24.70
2023-05-17T15:22:36.750Z,24.50
2023-05-17T15:25:04.642Z,24.30
2023-05-17T15:27:31.653Z,24.20
2023-05-17T15:29:58.823Z,24.10
2023-05-17T15:32:26.676Z,24.30
2023-05-17T15:34:53.639Z,24.40
2023-05-17T15:37:20.841Z,24.30
2023-05-17T15:39:47.791Z,24.30
2023-05-17T15:42:14.689Z,24.30
2023-05-17T15:44:41.654Z,24.10
2023-05-17T15:47:08.530Z,23.80
2023-05-17T15:49:35.914Z,23.60
2023-05-17T15:52:03.326Z,23.40
2023-05-17T15:54:31.253Z,23.40
2023-05-17T15:56:58.158Z,23.60
2023-05-17T15:59:25.588Z,23.70
2023-05-17T16:01:52.386Z,23.80
2023-05-17T16:04:19.317Z,23.70
2023-05-17T16:06:46.470Z,23.60
2023-05-17T16:09:14.460Z,23.40
2023-05-17T16:11:41.621Z,23.20
2023-05-17T16:14:09.465Z,23.00
2023-05-17T16:16:36.446Z,23.10
2023-05-17T16:19:04.533Z,23.00
2023-05-17T16:21:32.430Z,23.00
2023-05-17T16:23:59.256Z,23.00
2023-05-17T16:26:26.655Z,22.90
2023-05-17T16:28:53.724Z,22.80
2023-05-17T16:31:20.742Z,22.80
2023-05-17T16:33:47.754Z,22.80
2023-05-17T16:36:14.850Z,22.80
2023-05-17T16:38:41.698Z,22.90
2023-05-17T16:41:08.677Z,22.90
2023-05-17T16:43:35.601Z,22.80
2023-05-17T16:46:02.592Z,22.70
2023-05-17T16:48:29.460Z,22.70
2023-05-17T16:50:58.226Z,22.60
2023-05-17T16:53:28.171Z,22.70
2023-05-17T16:55:55.490Z,22.70
2023-05-17T16:58:22.269Z,22.70
2023-05-17T17:00:49.134Z,22.60
2023-05-17T17:03:16.160Z,22.60
2023-05-17T17:05:43.074Z,22.50
2023-05-17T17:08:09.933Z,22.50
2023-05-17T17:10:36.986Z,22.70
2023-05-17T17:13:04.008Z,22.80
2023-05-17T17:15:30.844Z,22.70
2023-05-17T17:17:57.789Z,22.50
2023-05-17T17:20:25.008Z,22.30
2023-05-17T17:22:52.138Z,22.20
2023-05-17T17:25:19.294Z,22.10
2023-05-17T17:27:47.017Z,22.20
2023-05-17T17:30:14.121Z,22.30
2023-05-17T17:32:41.174Z,22.30
2023-05-17T17:35:08.893Z,21.90
2023-05-17T17:37:36.178Z,21.80
2023-05-17T17:40:03.667Z,21.60
2023-05-17T17:42:32.200Z,21.20
2023-05-17T17:45:00.038Z,21.10
2023-05-17T17:47:27.005Z,21.20
2023-05-17T17:49:54.250Z,21.40
2023-05-17T17:52:21.174Z,21.50
2023-05-17T17:54:48.239Z,21.40
2023-05-17T17:57:15.633Z,21.40
2023-05-17T17:59:42.728Z,21.30
2023-05-17T18:02:10.095Z,21.20
2023-05-17T18:04:37.178Z,20.70
2023-05-17T18:07:04.176Z,20.10
2023-05-17T18:09:31.358Z,19.40
2023-05-17T18:11:59.662Z,18.70
2023-05-17T18:14:26.818Z,18.20
2023-05-17T18:16:54.060Z,17.90
2023-05-17T18:19:21.210Z,17.60
2023-05-17T18:21:50.336Z,17.30
2023-05-17T18:24:17.369Z,17.10
2023-05-17T18:26:44.507Z,16.90
2023-05-17T18:29:11.501Z,16.70
2023-05-17T18:31:38.483Z,16.60
2023-05-17T18:34:05.394Z,16.50
2023-05-17T18:36:32.406Z,16.50
2023-05-17T18:39:00.847Z,16.40
2023-05-17T18:41:27.762Z,16.30
2023-05-17T18:43:54.695Z,16.20
2023-05-17T18:46:21.810Z,16.10
2023-05-17T18:48:48.822Z,15.90
2023-05-17T18:51:15.960Z,15.80
2023-05-17T18:53:42.880Z,15.70
2023-05-17T18:56:09.845Z,15.60
2023-05-17T18:58:36.883Z,15.50
2023-05-17T19:01:04.045Z,15.30
2023-05-17T19:03:31.772Z,15.30
2023-05-17T19:05:58.804Z,15.20
2023-05-17T19:08:25.867Z,15.20
2023-05-17T19:10:53.005Z,15.10
2023-05-17T19:13:20.003Z,15.00
2023-05-17T19:15:46.907Z,14.90
2023-05-17T19:18:13.971Z,14.80
2023-05-17T19:20:41.009Z,14.70
2023-05-17T19:23:07.906Z,14.60
2023-05-17T19:25:34.980Z,14.50
2023-05-17T19:28:01.939Z,14.30
2023-05-17T19:30:32.601Z,14.20
2023-05-17T19:32:59.951Z,14.10
2023-05-17T19:35:26.886Z,14.00
2023-05-17T19:37:56.626Z,13.90
2023-05-17T19:40:24.512Z,13.90
2023-05-17T19:42:51.356Z,13.80
2023-05-17T19:45:18.240Z,13.80
2023-05-17T19:47:45.245Z,13.70
2023-05-17T19:50:12.498Z,13.60
2023-05-17T19:52:39.852Z,13.60
2023-05-17T19:55:07.124Z,13.50
2023-05-17T19:57:34.055Z,13.50
2023-05-17T20:00:01.226Z,13.40
2023-05-17T20:02:31.313Z,13.40
2023-05-17T20:05:00.008Z,13.30
2023-05-17T20:07:26.969Z,13.20
2023-05-17T20:09:53.970Z,13.20
2023-05-17T20:12:21.039Z,13.10
2023-05-17T20:14:48.141Z,13.00
2023-05-17T20:17:15.128Z,13.00
2023-05-17T20:19:42.153Z,13.00
2023-05-17T20:22:09.262Z,12.90
2023-05-17T20:24:36.600Z,12.90
2023-05-17T20:27:04.073Z,12.90
2023-05-17T20:29:31.741Z,12.90
2023-05-17T20:31:59.236Z,12.90
2023-05-17T20:34:29.113Z,12.80
2023-05-17T20:36:56.728Z,12.80
2023-05-17T20:39:27.884Z,12.70
2023-05-17T20:41:55.481Z,12.70
2023-05-17T20:44:24.064Z,12.70
2023-05-17T20:46:52.089Z,12.70
2023-05-17T20:49:19.154Z,12.60
2023-05-17T20:51:46.207Z,12.60
2023-05-17T20:54:13.119Z,12.60
2023-05-17T20:56:40.207Z,12.50
2023-05-17T20:59:07.447Z,12.50
2023-05-17T21:01:34.769Z,12.40
2023-05-17T21:04:01.982Z,12.40
2023-05-17T21:06:31.656Z,12.30
2023-05-17T21:09:02.615Z,12.30
2023-05-17T21:11:30.100Z,12.20
2023-05-17T21:14:00.111Z,12.20
2023-05-17T21:16:27.460Z,12.10
2023-05-17T21:18:54.408Z,12.10
2023-05-17T21:21:21.524Z,12.00
2023-05-17T21:23:48.872Z,12.00
2023-05-17T21:26:15.929Z,11.90
2023-05-17T21:28:42.943Z,11.80
2023-05-17T21:31:10.198Z,11.80
2023-05-17T21:33:37.197Z,11.70
2023-05-17T21:36:04.377Z,11.70
2023-05-17T21:38:31.446Z,11.60
2023-05-17T21:40:58.456Z,11.60
2023-05-17T21:43:25.481Z,11.50
2023-05-17T21:45:52.357Z,11.50
2023-05-17T21:48:19.296Z,11.40
2023-05-17T21:50:46.354Z,11.30
2023-05-17T21:53:13.802Z,11.30
2023-05-17T21:55:51.311Z,11.30
2023-05-17T21:58:27.854Z,11.30
2023-05-17T22:00:54.807Z,11.20
2023-05-17T22:03:22.206Z,11.20
2023-05-17T22:05:49.328Z,11.20
2023-05-17T22:08:16.404Z,11.10
2023-05-17T22:10:43.579Z,11.00
2023-05-17T22:13:12.494Z,11.00
2023-05-17T22:15:41.613Z,11.00
2023-05-17T22:18:09.139Z,10.90
2023-05-17T22:20:36.087Z,10.80
2023-05-17T22:23:03.296Z,10.80
2023-05-17T22:25:30.307Z,10.70
2023-05-17T22:27:57.249Z,10.70
2023-05-17T22:30:24.202Z,10.60
2023-05-17T22:32:54.673Z,10.50
2023-05-17T22:35:21.843Z,10.50
2023-05-17T22:37:50.073Z,10.50
2023-05-17T22:40:17.015Z,10.40
2023-05-17T22:42:44.993Z,10.40
2023-05-17T22:45:15.163Z,10.30
2023-05-17T22:47:46.875Z,10.30
2023-05-17T22:50:15.730Z,10.20
2023-05-17T22:52:43.468Z,10.20
2023-05-17T22:55:10.923Z,10.20
2023-05-17T22:57:38.259Z,10.10
2023-05-17T23:00:06.341Z,10.20
2023-05-17T23:02:33.424Z,10.20
2023-05-17T23:05:03.766Z,10.10
2023-05-17T23:07:36.848Z,10.10
2023-05-17T23:10:08.976Z,10.00
2023-05-17T23:12:37.117Z,9.90
2023-05-17T23:15:05.337Z,9.90
2023-05-17T23:17:34.053Z,9.90
2023-05-17T23:20:10.269Z,9.80
2023-05-17T23:22:38.963Z,9.80
2023-05-17T23:25:06.644Z,9.80
2023-05-17T23:27:35.445Z,9.80
2023-05-17T23:30:02.765Z,9.70
2023-05-17T23:32:32.715Z,9.70
2023-05-17T23:35:06.118Z,9.60
2023-05-17T23:37:33.820Z,9.60
2023-05-17T23:40:01.290Z,9.60
2023-05-17T23:42:29.597Z,9.60
2023-05-17T23:44:56.728Z,9.50
2023-05-17T23:47:24.439Z,9.50
2023-05-17T23:49:51.545Z,9.40
2023-05-17T23:52:19.149Z,9.30
2023-05-17T23:54:47.254Z,9.30
2023-05-17T23:57:14.360Z,9.30
2023-05-17T23:59:41.767Z,9.20
